createdAt,value
2023-04-05T00:00:30.045Z,9.747441
2023-04-05T00:01:30.037Z,9.747457
2023-04-05T00:02:30.155Z,9.747447
2023-04-05T00:03:30.088Z,9.747382
2023-04-05T00:04:30.218Z,9.747446
2023-04-05T00:05:30.001Z,9.747413
2023-04-05T00:06:30.019Z,9.747412
2023-04-05T00:07:29.987Z,9.747388
2023-04-05T00:08:29.992Z,9.747501
2023-04-05T00:09:30.015Z,9.747478
2023-04-05T00:10:30.006Z,9.747322
2023-04-05T00:11:29.954Z,9.747389
2023-04-05T00:12:29.956Z,9.747473
2023-04-05T00:13:29.962Z,9.747435
2023-04-05T00:14:29.960Z,9.747476
2023-04-05T00:15:30.923Z,9.747455
2023-04-05T00:16:29.962Z,9.747402
2023-04-05T00:17:29.936Z,9.747375
2023-04-05T00:18:29.905Z,9.747321
2023-04-05T00:19:29.921Z,9.747362
2023-04-05T00:20:29.888Z,9.747443
2023-04-05T00:21:29.888Z,9.747457
2023-04-05T00:22:29.941Z,9.747561
2023-04-05T00:23:29.872Z,9.747427
2023-04-05T00:24:29.901Z,9.747440
2023-04-05T00:25:29.854Z,9.747440
2023-04-05T00:26:29.865Z,9.747395
2023-04-05T00:27:29.836Z,9.747388
2023-04-05T00:28:29.890Z,9.747389
2023-04-05T00:29:29.861Z,9.747433
2023-04-05T00:30:29.824Z,9.747386
2023-04-05T00:31:29.877Z,9.747360
2023-04-05T00:32:29.845Z,9.747424
2023-04-05T00:33:29.804Z,9.747438
2023-04-05T00:34:29.807Z,9.747416
2023-04-05T00:35:29.806Z,9.747438
2023-04-05T00:36:29.796Z,9.747486
2023-04-05T00:37:29.758Z,9.747478
2023-04-05T00:38:29.774Z,9.747334
2023-04-05T00:39:29.782Z,9.747463
2023-04-05T00:40:29.748Z,9.747459
2023-04-05T00:41:29.776Z,9.747405
2023-04-05T00:42:29.724Z,9.747464
2023-04-05T00:43:29.716Z,9.747393
2023-04-05T00:44:29.748Z,9.747404
2023-04-05T00:45:29.709Z,9.747452
2023-04-05T00:46:29.882Z,9.747335
2023-04-05T00:47:29.722Z,9.747296
2023-04-05T00:48:29.727Z,9.747246
2023-04-05T00:49:29.670Z,9.747292
2023-04-05T00:50:29.741Z,9.747255
2023-04-05T00:51:29.682Z,9.747160
2023-04-05T00:52:29.653Z,9.747269
2023-04-05T00:53:29.639Z,9.747426
2023-04-05T00:54:29.700Z,9.747323
2023-04-05T00:55:29.661Z,9.747373
2023-04-05T00:56:29.653Z,9.747358
2023-04-05T00:57:29.626Z,9.747343
2023-04-05T00:58:29.627Z,9.747414
2023-04-05T00:59:29.703Z,9.747365
2023-04-05T01:00:29.624Z,9.747316
2023-04-05T01:01:29.636Z,9.747321
2023-04-05T01:02:29.602Z,9.747273
2023-04-05T01:03:30.569Z,9.747281
2023-04-05T01:04:29.576Z,9.747441
2023-04-05T01:05:29.572Z,9.747392
2023-04-05T01:06:29.564Z,9.747290
2023-04-05T01:07:29.543Z,9.747242
2023-04-05T01:08:29.530Z,9.747250
2023-04-05T01:09:29.585Z,9.747244
2023-04-05T01:10:29.558Z,9.747366
2023-04-05T01:11:29.514Z,9.747338
2023-04-05T01:12:29.530Z,9.747393
2023-04-05T01:13:29.500Z,9.747411
2023-04-05T01:14:29.481Z,9.747414
2023-04-05T01:15:29.520Z,9.747358
2023-04-05T01:16:29.497Z,9.747364
2023-04-05T01:17:29.471Z,9.747300
2023-04-05T01:18:29.452Z,9.747366
2023-04-05T01:19:29.454Z,9.747334
2023-04-05T01:20:29.484Z,9.747387
2023-04-05T01:21:29.423Z,9.747347
2023-04-05T01:22:29.423Z,9.747230
2023-04-05T01:23:29.428Z,9.747394
2023-04-05T01:24:29.409Z,9.747506
2023-04-05T01:25:29.436Z,9.747503
2023-04-05T01:26:29.407Z,9.747326
2023-04-05T01:27:29.392Z,9.747201
2023-04-05T01:28:29.372Z,9.747390
2023-04-05T01:29:29.372Z,9.747419
2023-04-05T01:30:29.389Z,9.747413
2023-04-05T01:31:29.387Z,9.747380
2023-04-05T01:32:29.362Z,9.747367
2023-04-05T01:33:29.336Z,9.747321
2023-04-05T01:34:29.398Z,9.747377
2023-04-05T01:35:29.781Z,9.747298
2023-04-05T01:36:29.334Z,9.747371
2023-04-05T01:37:29.311Z,9.747419
2023-04-05T01:38:29.299Z,9.747391
2023-04-05T01:39:29.298Z,9.747436
2023-04-05T01:40:29.311Z,9.747444
2023-04-05T01:41:29.279Z,9.747436
2023-04-05T01:42:29.317Z,9.747374
2023-04-05T01:43:29.262Z,9.747482
2023-04-05T01:44:29.257Z,9.747411
2023-04-05T01:45:29.315Z,9.747420
2023-04-05T01:46:29.285Z,9.747478
2023-04-05T01:47:29.291Z,9.747385
2023-04-05T01:48:29.224Z,9.747373
2023-04-05T01:49:29.265Z,9.747479
2023-04-05T01:50:29.271Z,9.747379
2023-04-05T01:51:29.316Z,9.747356
2023-04-05T01:52:29.198Z,9.747182
2023-04-05T01:53:29.206Z,9.747265
2023-04-05T01:54:29.195Z,9.747214
2023-04-05T01:55:29.203Z,9.747373
2023-04-05T01:56:29.177Z,9.747335
2023-04-05T01:57:29.179Z,9.747302
2023-04-05T01:58:29.157Z,9.747252
2023-04-05T01:59:29.186Z,9.747263
2023-04-05T02:00:29.204Z,9.747289
2023-04-05T02:01:29.189Z,9.747190
2023-04-05T02:02:29.185Z,9.747263
2023-04-05T02:03:29.245Z,9.747296
2023-04-05T02:04:29.117Z,9.747352
2023-04-05T02:05:29.164Z,9.747294
2023-04-05T02:06:29.093Z,9.747291
2023-04-05T02:07:30.090Z,9.747287
2023-04-05T02:08:29.109Z,9.747380
2023-04-05T02:09:29.084Z,9.747340
2023-04-05T02:10:29.130Z,9.747230
2023-04-05T02:11:29.075Z,9.747291
2023-04-05T02:12:29.058Z,9.747294
2023-04-05T02:13:29.063Z,9.747248
2023-04-05T02:14:29.045Z,9.747223
2023-04-05T02:15:29.064Z,9.747394
2023-04-05T02:16:29.083Z,9.747281
2023-04-05T02:17:29.026Z,9.747271
2023-04-05T02:18:29.027Z,9.747388
2023-04-05T02:19:29.000Z,9.747730
2023-04-05T02:20:29.005Z,9.747410
2023-04-05T02:21:29.011Z,9.747417
2023-04-05T02:22:28.984Z,9.747438
2023-04-05T02:23:28.985Z,9.747379
2023-04-05T02:24:28.978Z,9.747379
2023-04-05T02:25:28.975Z,9.747424
2023-04-05T02:26:28.981Z,9.747457
2023-04-05T02:27:28.953Z,9.747449
2023-04-05T02:28:28.963Z,9.747507
2023-04-05T02:29:28.954Z,9.747429
2023-04-05T02:30:28.931Z,9.747309
2023-04-05T02:31:28.985Z,9.747350
2023-04-05T02:32:28.945Z,9.747263
2023-04-05T02:33:28.909Z,9.747311
2023-04-05T02:34:28.953Z,9.747144
2023-04-05T02:35:28.912Z,9.747224
2023-04-05T02:36:28.920Z,9.747261
2023-04-05T02:37:28.890Z,9.747291
2023-04-05T02:38:28.878Z,9.747467
2023-04-05T02:39:28.862Z,9.747461
2023-04-05T02:40:28.866Z,9.747183
2023-04-05T02:41:28.882Z,9.747377
2023-04-05T02:42:28.847Z,9.747459
2023-04-05T02:43:28.841Z,9.747312
2023-04-05T02:44:28.833Z,9.747363
2023-04-05T02:45:28.870Z,9.747374
2023-04-05T02:46:28.843Z,9.747551
2023-04-05T02:47:28.832Z,9.747383
2023-04-05T02:48:28.803Z,9.747447
2023-04-05T02:49:28.801Z,9.747538
2023-04-05T02:50:28.785Z,9.747378
2023-04-05T02:51:28.814Z,9.747437
2023-04-05T02:52:28.781Z,9.747405
2023-04-05T02:53:28.787Z,9.747331
2023-04-05T02:54:28.780Z,9.747453
2023-04-05T02:55:28.758Z,9.747466
2023-04-05T02:56:28.774Z,9.747410
2023-04-05T02:57:28.742Z,9.747436
2023-04-05T02:58:28.739Z,9.747480
2023-04-05T02:59:28.842Z,9.747494
2023-04-05T03:00:28.734Z,9.747502
2023-04-05T03:01:28.772Z,9.747421
2023-04-05T03:02:28.731Z,9.747487
2023-04-05T03:03:28.730Z,9.747442
2023-04-05T03:04:28.698Z,9.747405
2023-04-05T03:05:28.683Z,9.747469
2023-04-05T03:06:28.700Z,9.747632
2023-04-05T03:07:28.676Z,9.747736
2023-04-05T03:08:28.663Z,9.747381
2023-04-05T03:09:28.651Z,9.747463
2023-04-05T03:10:28.651Z,9.747437
2023-04-05T03:11:28.682Z,9.747616
2023-04-05T03:12:28.628Z,9.747555
2023-04-05T03:13:28.629Z,9.747282
2023-04-05T03:14:28.619Z,9.747095
2023-04-05T03:15:28.609Z,9.746976
2023-04-05T03:16:28.681Z,9.747118
2023-04-05T03:17:28.652Z,9.747160
2023-04-05T03:18:28.594Z,9.747108
2023-04-05T03:19:28.596Z,9.747333
2023-04-05T03:20:28.585Z,9.747339
2023-04-05T03:21:28.655Z,9.747436
2023-04-05T03:22:28.577Z,9.747501
2023-04-05T03:23:28.581Z,9.747229
2023-04-05T03:24:28.544Z,9.747294
2023-04-05T03:25:28.547Z,9.747181
2023-04-05T03:26:28.562Z,9.747359
2023-04-05T03:27:28.541Z,9.747462
2023-04-05T03:28:28.681Z,9.747615
2023-04-05T03:29:28.515Z,9.747422
2023-04-05T03:30:28.502Z,9.747438
2023-04-05T03:31:28.638Z,9.747939
2023-04-05T03:32:28.534Z,9.747707
2023-04-05T03:33:28.507Z,9.747583
2023-04-05T03:34:28.476Z,9.747572
2023-04-05T03:35:28.492Z,9.747364
2023-04-05T03:36:28.485Z,9.747313
2023-04-05T03:37:29.453Z,9.747329
2023-04-05T03:38:28.510Z,9.747364
2023-04-05T03:39:28.442Z,9.747241
2023-04-05T03:40:28.475Z,9.747052
2023-04-05T03:41:28.454Z,9.747295
2023-04-05T03:42:28.424Z,9.747546
2023-04-05T03:43:28.430Z,9.747441
2023-04-05T03:44:28.404Z,9.747333
2023-04-05T03:45:28.399Z,9.747251
2023-04-05T03:46:28.469Z,9.747389
2023-04-05T03:47:28.422Z,9.747166
2023-04-05T03:48:28.397Z,9.747256
2023-04-05T03:49:28.362Z,9.747205
2023-04-05T03:50:28.409Z,9.747119
2023-04-05T03:51:28.401Z,9.747237
2023-04-05T03:52:28.346Z,9.747286
2023-04-05T03:53:28.335Z,9.747315
2023-04-05T03:54:28.339Z,9.747363
2023-04-05T03:55:28.334Z,9.747424
2023-04-05T03:56:28.418Z,9.747378
2023-04-05T03:57:28.312Z,9.747366
2023-04-05T03:58:28.322Z,9.747457
2023-04-05T03:59:28.409Z,9.747348
2023-04-05T04:00:28.283Z,9.747259
2023-04-05T04:01:28.314Z,9.747190
2023-04-05T04:02:28.417Z,9.747300
2023-04-05T04:03:28.299Z,9.747347
2023-04-05T04:04:28.334Z,9.747269
2023-04-05T04:05:28.251Z,9.747313
2023-04-05T04:06:28.278Z,9.747332
2023-04-05T04:07:28.261Z,9.747328
2023-04-05T04:08:28.233Z,9.747158
2023-04-05T04:09:28.223Z,9.747146
2023-04-05T04:10:28.214Z,9.747315
2023-04-05T04:11:28.205Z,9.747335
2023-04-05T04:12:29.237Z,9.747053
2023-04-05T04:13:28.193Z,9.747182
2023-04-05T04:14:28.187Z,9.747094
2023-04-05T04:15:28.182Z,9.747464
2023-04-05T04:16:28.826Z,9.747269
2023-04-05T04:17:29.238Z,9.747112
2023-04-05T04:18:28.165Z,9.747286
2023-04-05T04:19:29.149Z,9.747304
2023-04-05T04:20:28.136Z,9.747212
2023-04-05T04:21:28.133Z,9.747329
2023-04-05T04:22:28.145Z,9.746813
2023-04-05T04:23:28.128Z,9.747053
2023-04-05T04:24:28.116Z,9.747037
2023-04-05T04:25:28.095Z,9.747382
2023-04-05T04:26:28.099Z,9.747332
2023-04-05T04:27:28.116Z,9.747347
2023-04-05T04:28:28.095Z,9.747097
2023-04-05T04:29:28.077Z,9.747345
2023-04-05T04:30:28.069Z,9.747561
2023-04-05T04:31:28.074Z,9.747293
2023-04-05T04:32:28.112Z,9.747438
2023-04-05T04:33:28.048Z,9.747733
2023-04-05T04:34:28.039Z,9.747473
2023-04-05T04:35:28.112Z,9.747531
2023-04-05T04:36:28.038Z,9.747913
2023-04-05T04:37:28.048Z,9.747779
2023-04-05T04:38:28.016Z,9.747745
2023-04-05T04:39:28.007Z,9.747835
2023-04-05T04:40:27.999Z,9.747685
2023-04-05T04:41:40.125Z,9.747729
2023-04-05T04:42:28.013Z,9.747603
2023-04-05T04:43:27.980Z,9.747747
2023-04-05T04:44:28.005Z,9.747495
2023-04-05T04:45:27.991Z,9.747346
2023-04-05T04:46:27.976Z,9.747264
2023-04-05T04:47:27.995Z,9.747055
2023-04-05T04:48:27.951Z,9.747343
2023-04-05T04:49:27.941Z,9.747458
2023-04-05T04:50:27.936Z,9.747428
2023-04-05T04:51:27.924Z,9.747428
2023-04-05T04:52:27.951Z,9.747527
2023-04-05T04:53:27.903Z,9.747492
2023-04-05T04:54:27.994Z,9.747559
2023-04-05T04:55:27.932Z,9.747705
2023-04-05T04:56:27.895Z,9.747680
2023-04-05T04:57:27.898Z,9.747762
2023-04-05T04:58:27.870Z,9.747696
2023-04-05T04:59:27.898Z,9.747894
2023-04-05T05:00:27.875Z,9.747601
2023-04-05T05:01:27.950Z,9.747628
2023-04-05T05:02:30.568Z,9.747415
2023-04-05T05:03:27.846Z,9.747336
2023-04-05T05:04:27.950Z,9.747150
2023-04-05T05:05:27.856Z,9.746999
2023-04-05T05:06:27.819Z,9.746962
2023-04-05T05:07:27.848Z,9.747107
2023-04-05T05:08:27.814Z,9.747322
2023-04-05T05:09:27.794Z,9.747160
2023-04-05T05:10:27.792Z,9.747283
2023-04-05T05:11:27.783Z,9.747289
2023-04-05T05:12:27.804Z,9.747262
2023-04-05T05:13:27.784Z,9.747375
2023-04-05T05:14:27.754Z,9.747442
2023-04-05T05:15:27.793Z,9.747194
2023-04-05T05:16:27.790Z,9.747315
2023-04-05T05:17:27.786Z,9.747322
2023-04-05T05:18:27.734Z,9.747344
2023-04-05T05:19:27.729Z,9.747268
2023-04-05T05:20:27.726Z,9.747213
2023-04-05T05:21:27.712Z,9.747352
2023-04-05T05:22:27.755Z,9.747432
2023-04-05T05:23:27.694Z,9.747500
2023-04-05T05:24:27.698Z,9.747309
2023-04-05T05:25:28.444Z,9.747310
2023-04-05T05:26:27.713Z,9.747152
2023-04-05T05:27:28.744Z,9.747231
2023-04-05T05:28:27.663Z,9.747372
2023-04-05T05:29:27.655Z,9.747334
2023-04-05T05:30:28.651Z,9.747300
2023-04-05T05:31:27.680Z,9.747256
2023-04-05T05:32:27.685Z,9.747160
2023-04-05T05:33:27.627Z,9.747200
2023-04-05T05:34:27.621Z,9.747362
2023-04-05T05:35:27.666Z,9.747331
2023-04-05T05:36:27.606Z,9.747455
2023-04-05T05:37:27.627Z,9.747415
2023-04-05T05:38:27.587Z,9.747296
2023-04-05T05:39:27.692Z,9.747478
2023-04-05T05:40:27.580Z,9.747399
2023-04-05T05:41:27.572Z,9.747350
2023-04-05T05:42:27.617Z,9.747261
2023-04-05T05:43:27.554Z,9.747243
2023-04-05T05:44:27.564Z,9.747213
2023-04-05T05:45:27.552Z,9.747230
2023-04-05T05:46:27.638Z,9.747152
2023-04-05T05:47:27.587Z,9.747373
2023-04-05T05:48:27.723Z,9.747369
2023-04-05T05:49:27.519Z,9.747488
2023-04-05T05:50:27.521Z,9.747407
2023-04-05T05:51:27.502Z,9.747558
2023-04-05T05:52:27.524Z,9.748116
2023-04-05T05:53:27.473Z,9.747832
2023-04-05T05:54:28.475Z,9.747472
2023-04-05T05:55:27.476Z,9.747310
2023-04-05T05:56:27.461Z,9.747407
2023-04-05T05:57:27.529Z,9.747762
2023-04-05T05:58:27.481Z,9.747395
2023-04-05T05:59:27.557Z,9.747715
2023-04-05T06:00:27.472Z,9.747909
2023-04-05T06:01:27.422Z,9.747806
2023-04-05T06:02:27.498Z,9.747733
2023-04-05T06:03:27.493Z,9.747797
2023-04-05T06:04:27.489Z,9.747981
2023-04-05T06:05:27.397Z,9.747727
2023-04-05T06:06:27.392Z,9.747536
2023-04-05T06:07:27.403Z,9.747614
2023-04-05T06:08:27.374Z,9.747343
2023-04-05T06:09:27.371Z,9.747732
2023-04-05T06:10:27.362Z,9.747766
2023-04-05T06:11:27.381Z,9.747563
2023-04-05T06:12:28.755Z,9.747442
2023-04-05T06:13:27.335Z,9.747505
2023-04-05T06:14:27.337Z,9.747541
2023-04-05T06:15:27.362Z,9.747487
2023-04-05T06:16:27.389Z,9.747456
2023-04-05T06:17:27.445Z,9.747478
2023-04-05T06:18:27.303Z,9.747421
2023-04-05T06:19:27.289Z,9.747411
2023-04-05T06:20:27.310Z,9.747398
2023-04-05T06:21:27.270Z,9.747485
2023-04-05T06:22:27.307Z,9.747472
2023-04-05T06:23:27.264Z,9.747479
2023-04-05T06:24:27.267Z,9.747422
2023-04-05T06:25:27.245Z,9.747364
2023-04-05T06:26:27.247Z,9.747410
2023-04-05T06:27:27.294Z,9.747447
2023-04-05T06:28:27.221Z,9.747381
2023-04-05T06:29:27.220Z,9.747432
2023-04-05T06:30:27.212Z,9.747443
2023-04-05T06:31:27.304Z,9.747415
2023-04-05T06:32:27.220Z,9.747467
2023-04-05T06:33:27.212Z,9.747480
2023-04-05T06:34:27.176Z,9.747469
2023-04-05T06:35:27.174Z,9.747448
2023-04-05T06:36:27.827Z,9.747496
2023-04-05T06:37:28.156Z,9.747549
2023-04-05T06:38:27.222Z,9.747564
2023-04-05T06:39:27.140Z,9.747473
2023-04-05T06:40:27.133Z,9.747538
2023-04-05T06:41:27.122Z,9.747449
2023-04-05T06:42:28.117Z,9.747465
2023-04-05T06:43:28.124Z,9.747463
2023-04-05T06:44:27.098Z,9.747486
2023-04-05T06:45:27.128Z,9.747473
2023-04-05T06:46:27.129Z,9.747432
2023-04-05T06:47:27.100Z,9.747329
2023-04-05T06:48:27.066Z,9.747343
2023-04-05T06:49:27.070Z,9.747433
2023-04-05T06:50:27.080Z,9.747381
2023-04-05T06:51:27.051Z,9.747469
2023-04-05T06:52:27.041Z,9.747448
2023-04-05T06:53:27.037Z,9.747472
2023-04-05T06:54:27.016Z,9.747418
2023-04-05T06:55:27.046Z,9.747394
2023-04-05T06:56:27.016Z,9.747390
2023-04-05T06:57:27.008Z,9.747461
2023-04-05T06:58:27.028Z,9.747401
2023-04-05T06:59:27.012Z,9.747429
2023-04-05T07:00:26.979Z,9.747449
2023-04-05T07:01:27.049Z,9.747426
2023-04-05T07:02:27.050Z,9.747397
2023-04-05T07:03:26.970Z,9.747507
2023-04-05T07:04:27.008Z,9.747416
2023-04-05T07:05:26.961Z,9.747361
2023-04-05T07:06:26.963Z,9.747318
2023-04-05T07:07:26.933Z,9.747381
2023-04-05T07:08:26.926Z,9.747369
2023-04-05T07:09:26.923Z,9.747540
2023-04-05T07:10:26.912Z,9.747409
2023-04-05T07:11:26.929Z,9.747364
2023-04-05T07:12:26.888Z,9.747318
2023-04-05T07:13:26.918Z,9.747458
2023-04-05T07:14:26.877Z,9.747306
2023-04-05T07:15:26.864Z,9.747179
2023-04-05T07:16:26.962Z,9.747351
2023-04-05T07:17:26.873Z,9.747240
2023-04-05T07:18:26.852Z,9.747370
2023-04-05T07:19:26.838Z,9.747244
2023-04-05T07:20:26.840Z,9.747335
2023-04-05T07:21:26.855Z,9.747455
2023-04-05T07:22:26.814Z,9.747318
2023-04-05T07:23:26.810Z,9.747362
2023-04-05T07:24:26.804Z,9.747351
2023-04-05T07:25:26.796Z,9.747302
2023-04-05T07:26:26.817Z,9.747362
2023-04-05T07:27:26.775Z,9.747417
2023-04-05T07:28:26.770Z,9.747381
2023-04-05T07:29:26.753Z,9.747490
2023-04-05T07:30:27.758Z,9.747501
2023-04-05T07:31:26.788Z,9.747373
2023-04-05T07:32:26.936Z,9.747420
2023-04-05T07:33:26.731Z,9.747413
2023-04-05T07:34:26.729Z,9.747500
2023-04-05T07:35:26.900Z,9.747265
2023-04-05T07:36:27.638Z,9.747476
2023-04-05T07:37:26.700Z,9.747496
2023-04-05T07:38:27.713Z,9.747639
2023-04-05T07:39:26.769Z,9.747565
2023-04-05T07:40:26.694Z,9.747420
2023-04-05T07:41:26.713Z,9.747504
2023-04-05T07:42:26.688Z,9.747534
2023-04-05T07:43:26.660Z,9.747494
2023-04-05T07:44:26.648Z,9.747545
2023-04-05T07:45:27.663Z,9.747458
2023-04-05T07:46:26.746Z,9.747352
2023-04-05T07:47:26.663Z,9.747497
2023-04-05T07:48:26.626Z,9.747351
2023-04-05T07:49:26.648Z,9.747149
2023-04-05T07:50:26.632Z,9.747317
2023-04-05T07:51:26.655Z,9.747411
2023-04-05T07:52:26.595Z,9.747396
2023-04-05T07:53:26.588Z,9.747437
2023-04-05T07:54:26.610Z,9.747459
2023-04-05T07:55:26.588Z,9.747364
2023-04-05T07:56:26.590Z,9.747051
2023-04-05T07:57:26.555Z,9.747023
2023-04-05T07:58:26.549Z,9.747243
2023-04-05T07:59:26.614Z,9.747302
2023-04-05T08:00:26.564Z,9.747353
2023-04-05T08:01:26.559Z,9.747206
2023-04-05T08:02:26.548Z,9.747275
2023-04-05T08:03:26.663Z,9.747636
2023-04-05T08:04:26.512Z,9.747318
2023-04-05T08:05:26.611Z,9.747201
2023-04-05T08:06:26.516Z,9.747389
2023-04-05T08:07:26.492Z,9.747460
2023-04-05T08:08:26.489Z,9.747397
2023-04-05T08:09:26.481Z,9.747334
2023-04-05T08:10:26.462Z,9.747360
2023-04-05T08:11:26.478Z,9.747453
2023-04-05T08:12:26.445Z,9.747389
2023-04-05T08:13:26.440Z,9.747382
2023-04-05T08:14:26.426Z,9.747499
2023-04-05T08:15:26.424Z,9.747376
2023-04-05T08:16:26.509Z,9.747438
2023-04-05T08:17:26.438Z,9.747262
2023-04-05T08:18:26.415Z,9.747419
2023-04-05T08:19:26.400Z,9.747383
2023-04-05T08:20:26.389Z,9.747591
2023-04-05T08:21:26.404Z,9.747576
2023-04-05T08:22:26.373Z,9.747729
2023-04-05T08:23:26.364Z,9.747477
2023-04-05T08:24:26.407Z,9.747480
2023-04-05T08:25:26.363Z,9.747459
2023-04-05T08:26:26.369Z,9.747483
2023-04-05T08:27:26.327Z,9.747398
2023-04-05T08:28:26.314Z,9.747386
2023-04-05T08:29:27.323Z,9.747284
2023-04-05T08:30:26.310Z,9.747517
2023-04-05T08:31:26.371Z,9.747316
2023-04-05T08:32:26.308Z,9.747398
2023-04-05T08:33:26.428Z,9.747512
2023-04-05T08:34:26.279Z,9.747643
2023-04-05T08:35:26.292Z,9.747529
2023-04-05T08:36:26.290Z,9.747437
2023-04-05T08:37:26.256Z,9.747456
2023-04-05T08:38:26.275Z,9.747718
2023-04-05T08:39:26.244Z,9.747671
2023-04-05T08:40:26.242Z,9.747532
2023-04-05T08:41:26.242Z,9.747366
2023-04-05T08:42:26.251Z,9.747665
2023-04-05T08:43:26.212Z,9.747633
2023-04-05T08:44:26.202Z,9.747531
2023-04-05T08:45:26.208Z,9.747523
2023-04-05T08:46:26.233Z,9.747482
2023-04-05T08:47:26.246Z,9.747273
2023-04-05T08:48:26.179Z,9.747587
2023-04-05T08:49:26.177Z,9.747499
2023-04-05T08:50:26.170Z,9.747647
2023-04-05T08:51:26.157Z,9.747539
2023-04-05T08:52:26.174Z,9.747896
2023-04-05T08:53:26.140Z,9.747804
2023-04-05T08:54:26.151Z,9.747616
2023-04-05T08:55:26.138Z,9.747535
2023-04-05T08:56:26.135Z,9.747529
2023-04-05T08:57:26.146Z,9.747532
2023-04-05T08:58:26.105Z,9.747487
2023-04-05T08:59:26.165Z,9.747568
2023-04-05T09:00:26.095Z,9.747473
2023-04-05T09:01:26.096Z,9.747572
2023-04-05T09:02:26.192Z,9.747581
2023-04-05T09:03:26.166Z,9.747583
2023-04-05T09:04:26.057Z,9.747536
2023-04-05T09:05:26.050Z,9.747575
2023-04-05T09:06:26.047Z,9.747788
2023-04-05T09:07:26.059Z,9.747620
2023-04-05T09:08:26.036Z,9.747489
2023-04-05T09:09:26.054Z,9.747436
2023-04-05T09:10:26.011Z,9.747487
2023-04-05T09:11:26.022Z,9.747482
2023-04-05T09:12:26.043Z,9.747551
2023-04-05T09:13:25.992Z,9.747448
2023-04-05T09:14:25.984Z,9.747522
2023-04-05T09:15:25.986Z,9.747546
2023-04-05T09:16:25.998Z,9.747665
2023-04-05T09:17:25.984Z,9.747576
2023-04-05T09:18:27.279Z,9.747680
2023-04-05T09:19:26.960Z,9.747559
2023-04-05T09:20:26.017Z,9.747375
2023-04-05T09:21:25.936Z,9.747293
2023-04-05T09:22:25.946Z,9.747229
2023-04-05T09:23:25.942Z,9.747461
2023-04-05T09:24:25.916Z,9.747523
2023-04-05T09:25:25.899Z,9.747584
2023-04-05T09:26:25.896Z,9.747676
2023-04-05T09:27:25.922Z,9.747432
2023-04-05T09:28:25.891Z,9.747441
2023-04-05T09:29:25.886Z,9.747396
2023-04-05T09:30:25.877Z,9.747482
2023-04-05T09:31:25.882Z,9.747473
2023-04-05T09:32:25.907Z,9.747483
2023-04-05T09:33:25.843Z,9.747615
2023-04-05T09:34:25.835Z,9.747692
2023-04-05T09:35:25.832Z,9.747641
2023-04-05T09:36:25.836Z,9.747465
2023-04-05T09:37:25.833Z,9.747500
2023-04-05T09:38:25.798Z,9.747499
2023-04-05T09:39:25.794Z,9.747497
2023-04-05T09:40:25.784Z,9.747495
2023-04-05T09:41:25.774Z,9.747432
2023-04-05T09:42:26.835Z,9.747628
2023-04-05T09:43:25.770Z,9.747291
2023-04-05T09:44:25.758Z,9.747190
2023-04-05T09:45:25.746Z,9.747427
2023-04-05T09:46:25.754Z,9.747334
2023-04-05T09:47:25.818Z,9.747426
2023-04-05T09:48:25.728Z,9.747446
2023-04-05T09:49:25.732Z,9.747469
2023-04-05T09:50:25.708Z,9.747489
2023-04-05T09:51:25.710Z,9.747478
2023-04-05T09:52:25.731Z,9.747417
2023-04-05T09:53:25.691Z,9.747438
2023-04-05T09:54:25.682Z,9.747499
2023-04-05T09:55:25.674Z,9.747420
2023-04-05T09:56:25.662Z,9.747458
2023-04-05T09:57:26.734Z,9.747480
2023-04-05T09:58:25.650Z,9.747277
2023-04-05T09:59:25.681Z,9.747307
2023-04-05T10:00:25.651Z,9.747429
2023-04-05T10:01:25.643Z,9.747359
2023-04-05T10:02:25.735Z,9.747432
2023-04-05T10:03:25.685Z,9.747458
2023-04-05T10:04:26.754Z,9.747293
2023-04-05T10:05:25.588Z,9.747358
2023-04-05T10:06:25.588Z,9.747528
2023-04-05T10:07:25.571Z,9.747309
2023-04-05T10:08:25.603Z,9.747455
2023-04-05T10:09:25.560Z,9.747478
2023-04-05T10:10:25.605Z,9.747398
2023-04-05T10:11:25.548Z,9.747260
2023-04-05T10:12:25.543Z,9.747396
2023-04-05T10:13:25.555Z,9.747402
2023-04-05T10:14:25.528Z,9.747533
2023-04-05T10:15:25.535Z,9.747407
2023-04-05T10:16:25.550Z,9.747474
2023-04-05T10:17:25.528Z,9.747459
2023-04-05T10:18:25.520Z,9.747487
2023-04-05T10:19:25.490Z,9.747485
2023-04-05T10:20:25.495Z,9.747519
2023-04-05T10:21:25.473Z,9.747410
2023-04-05T10:22:25.459Z,9.747487
2023-04-05T10:23:25.491Z,9.747490
2023-04-05T10:24:25.465Z,9.747422
2023-04-05T10:25:25.439Z,9.747377
2023-04-05T10:26:25.438Z,9.747412
2023-04-05T10:27:25.432Z,9.747385
2023-04-05T10:28:25.459Z,9.747455
2023-04-05T10:29:25.406Z,9.747450
2023-04-05T10:30:25.466Z,9.747501
2023-04-05T10:31:37.030Z,9.747457
2023-04-05T10:32:27.404Z,9.747479
2023-04-05T10:33:25.469Z,9.747502
2023-04-05T10:34:25.433Z,9.747414
2023-04-05T10:35:25.423Z,9.747501
2023-04-05T10:36:25.385Z,9.747582
2023-04-05T10:37:25.412Z,9.747556
2023-04-05T10:38:25.379Z,9.747394
2023-04-05T10:39:25.339Z,9.747395
2023-04-05T10:40:25.368Z,9.747412
2023-04-05T10:41:26.324Z,9.747324
2023-04-05T10:42:57.296Z,9.747503
2023-04-05T10:43:25.359Z,9.747487
2023-04-05T10:44:26.979Z,9.747521
2023-04-05T10:45:26.299Z,9.747488
2023-04-05T10:46:25.331Z,9.747248
2023-04-05T10:47:25.328Z,9.747416
2023-04-05T10:48:25.314Z,9.747458
2023-04-05T10:49:25.264Z,9.747413
2023-04-05T10:50:25.284Z,9.747472
2023-04-05T10:51:25.263Z,9.747469
2023-04-05T10:52:25.232Z,9.747400
2023-04-05T10:53:25.309Z,9.747340
2023-04-05T10:54:25.413Z,9.747470
2023-04-05T10:55:25.262Z,9.747558
2023-04-05T10:56:25.226Z,9.747564
2023-04-05T10:57:25.262Z,9.747445
2023-04-05T10:58:25.250Z,9.747432
2023-04-05T10:59:25.274Z,9.747425
2023-04-05T11:00:25.190Z,9.747491
2023-04-05T11:01:25.234Z,9.747501
2023-04-05T11:02:25.202Z,9.747488
2023-04-05T11:03:25.384Z,9.747463
2023-04-05T11:04:25.257Z,9.747480
2023-04-05T11:05:25.169Z,9.747497
2023-04-05T11:06:25.171Z,9.747425
2023-04-05T11:07:25.138Z,9.747474
2023-04-05T11:08:25.193Z,9.747499
2023-04-05T11:09:25.153Z,9.747503
2023-04-05T11:10:25.107Z,9.747447
2023-04-05T11:11:25.182Z,9.747415
2023-04-05T11:12:25.094Z,9.747443
2023-04-05T11:13:25.084Z,9.747486
2023-04-05T11:14:25.187Z,9.747452
2023-04-05T11:15:25.148Z,9.747439
2023-04-05T11:16:25.123Z,9.747425
2023-04-05T11:17:25.072Z,9.747467
2023-04-05T11:18:25.057Z,9.747365
2023-04-05T11:19:25.247Z,9.747447
2023-04-05T11:20:25.054Z,9.747364
2023-04-05T11:21:25.014Z,9.747429
2023-04-05T11:22:26.020Z,9.747395
2023-04-05T11:23:25.309Z,9.747473
2023-04-05T11:24:25.039Z,9.747425
2023-04-05T11:25:25.007Z,9.747343
2023-04-05T11:26:24.988Z,9.747416
2023-04-05T11:27:24.985Z,9.747495
2023-04-05T11:28:24.997Z,9.747355
2023-04-05T11:29:24.994Z,9.747333
2023-04-05T11:30:24.960Z,9.747298
2023-04-05T11:31:25.009Z,9.747313
2023-04-05T11:32:24.977Z,9.747355
2023-04-05T11:33:24.967Z,9.747402
2023-04-05T11:34:25.400Z,9.747416
2023-04-05T11:35:25.936Z,9.747413
2023-04-05T11:36:24.915Z,9.747364
2023-04-05T11:37:24.908Z,9.747405
2023-04-05T11:38:24.900Z,9.747397
2023-04-05T11:39:24.923Z,9.747310
2023-04-05T11:40:24.905Z,9.747293
2023-04-05T11:41:24.869Z,9.747452
2023-04-05T11:42:24.876Z,9.747431
2023-04-05T11:43:24.862Z,9.747430
2023-04-05T11:44:24.883Z,9.747501